Time;durP1;ratioP1;P1;durP2;ratioP2;P2;SDS_P1;SDS_P2;PMS_P1;PMS_P2;Temp;Humidity;BMP_temperature;BMP_pressure;BME280_temperature;BME280_humidity;BME280_pressure;Samples;Min_cycle;Max_cycle;Signal;HPM_P1;HPM_P2
2023/12/31 00:00:28;;;;;;;6.15;4.38;;;4.70;70.70;;;;;;5006282;28;20038;-59
2023/12/31 00:02:54;;;;;;;8.35;4.53;;;4.70;70.80;;;;;;5004787;28;20141;-59
2023/12/31 00:05:19;;;;;;;6.78;5.00;;;4.70;70.80;;;;;;5001394;28;20030;-60
2023/12/31 00:07:45;;;;;;;8.82;5.22;;;4.60;70.70;;;;;;4986977;28;20084;-58
2023/12/31 00:10:11;;;;;;;14.68;4.88;;;4.60;70.60;;;;;;4999960;28;20057;-59
2023/12/31 00:12:37;;;;;;;8.13;4.80;;;4.60;70.60;;;;;;4989038;28;20036;-59
2023/12/31 00:15:04;;;;;;;6.25;4.65;;;4.70;70.90;;;;;;5004557;28;20583;-59
2023/12/31 00:17:30;;;;;;;8.43;5.40;;;4.50;70.90;;;;;;5003281;28;20396;-59
2023/12/31 00:19:56;;;;;;;7.50;4.75;;;4.50;71.10;;;;;;5004625;28;20060;-58
2023/12/31 00:22:21;;;;;;;13.48;5.35;;;4.50;71.10;;;;;;5004847;28;20551;-59
2023/12/31 00:24:51;;;;;;;17.83;5.93;;;4.50;71.20;;;;;;5003770;28;20030;-59
2023/12/31 00:27:17;;;;;;;14.98;6.18;;;4.50;71.40;;;;;;5007674;28;20037;-59
2023/12/31 00:29:44;;;;;;;14.02;5.85;;;4.50;71.60;;;;;;5003407;28;20042;-59
2023/12/31 00:32:10;;;;;;;13.27;5.60;;;4.50;71.70;;;;;;4999564;28;20492;-59
2023/12/31 00:34:36;;;;;;;11.98;6.03;;;4.50;71.60;;;;;;4998222;28;20089;-59
2023/12/31 00:37:03;;;;;;;20.50;5.90;;;4.50;71.60;;;;;;5003850;28;20671;-60
2023/12/31 00:39:29;;;;;;;11.45;6.03;;;4.50;71.70;;;;;;5003778;28;20505;-59
2023/12/31 00:41:54;;;;;;;12.88;6.95;;;4.50;71.80;;;;;;4998985;28;20029;-59
2023/12/31 00:44:20;;;;;;;13.10;6.60;;;4.50;71.90;;;;;;5000226;28;20504;-59
2023/12/31 00:46:46;;;;;;;14.70;7.13;;;4.50;72.10;;;;;;5002478;28;20025;-59
2023/12/31 00:49:11;;;;;;;11.38;6.70;;;4.50;72.10;;;;;;4985017;28;20080;-59
2023/12/31 00:51:37;;;;;;;13.15;7.20;;;4.50;72.10;;;;;;4997228;28;20034;-59
2023/12/31 00:54:03;;;;;;;13.02;6.70;;;4.60;72.20;;;;;;5006445;28;20053;-59
2023/12/31 00:56:28;;;;;;;20.00;7.47;;;4.50;72.00;;;;;;5006143;28;20551;-60
2023/12/31 00:58:54;;;;;;;15.68;7.90;;;4.50;72.10;;;;;;5006161;28;20033;-60
2023/12/31 01:01:20;;;;;;;21.00;7.20;;;4.50;72.20;;;;;;5002230;28;20030;-60
2023/12/31 01:03:45;;;;;;;17.02;7.80;;;4.50;72.30;;;;;;5005694;28;20449;-60
2023/12/31 01:06:11;;;;;;;20.65;7.68;;;4.50;72.30;;;;;;5007320;28;20033;-60
2023/12/31 01:08:37;;;;;;;16.60;7.63;;;4.60;72.50;;;;;;5004337;28;20026;-59
2023/12/31 01:11:02;;;;;;;23.23;8.23;;;4.60;72.60;;;;;;4983973;28;20022;-60
2023/12/31 01:13:28;;;;;;;25.55;8.32;;;4.50;72.60;;;;;;5002498;28;20684;-60
2023/12/31 01:15:54;;;;;;;21.20;9.32;;;4.60;72.60;;;;;;5002657;28;20030;-59
2023/12/31 01:18:20;;;;;;;18.73;8.30;;;4.60;72.60;;;;;;4999311;28;20042;-59
2023/12/31 01:20:46;;;;;;;51.70;10.23;;;4.60;72.90;;;;;;4994370;28;20045;-59
2023/12/31 01:23:11;;;;;;;27.20;10.40;;;4.60;72.80;;;;;;5003584;28;20034;-58
2023/12/31 01:25:37;;;;;;;23.08;10.45;;;4.60;73.00;;;;;;5002475;28;20030;-59
2023/12/31 01:28:03;;;;;;;38.75;10.15;;;4.70;72.90;;;;;;5000007;28;20424;-59
2023/12/31 01:30:29;;;;;;;26.15;11.10;;;4.70;73.00;;;;;;4995369;28;20523;-58
2023/12/31 01:32:56;;;;;;;37.40;12.95;;;4.70;73.00;;;;;;4998497;28;20030;-60
2023/12/31 01:35:21;;;;;;;53.95;13.68;;;4.70;73.10;;;;;;5003231;28;20040;-60
2023/12/31 01:37:47;;;;;;;39.38;12.23;;;4.70;73.30;;;;;;4985202;28;20025;-60
2023/12/31 01:40:13;;;;;;;41.90;13.02;;;4.70;73.40;;;;;;4985613;28;20037;-61
2023/12/31 01:42:39;;;;;;;55.88;11.93;;;4.70;73.40;;;;;;4999484;28;20022;-60
2023/12/31 01:45:05;;;;;;;64.97;10.60;;;4.70;73.40;;;;;;5002157;28;20409;-61
2023/12/31 01:47:35;;;;;;;40.13;9.15;;;4.80;73.50;;;;;;4983657;28;20034;-59
2023/12/31 01:50:04;;;;;;;34.63;9.68;;;4.80;74.30;;;;;;4998202;28;20030;-59
2023/12/31 01:52:31;;;;;;;30.98;7.90;;;4.80;73.50;;;;;;5003135;28;20030;-59
2023/12/31 01:55:00;;;;;;;25.70;7.25;;;4.80;73.40;;;;;;5002019;28;20524;-58
2023/12/31 01:57:28;;;;;;;22.52;7.35;;;4.80;73.40;;;;;;5001610;28;20088;-59
2023/12/31 01:59:56;;;;;;;52.15;8.88;;;4.80;73.40;;;;;;4995167;28;20053;-59
2023/12/31 02:02:25;;;;;;;29.52;8.55;;;4.80;73.40;;;;;;4985842;28;20034;-59
2023/12/31 02:04:51;;;;;;;33.25;8.55;;;4.80;73.50;;;;;;5001431;28;20029;-58
2023/12/31 02:07:20;;;;;;;65.82;8.75;;;4.90;73.50;;;;;;5000340;28;20047;-59
2023/12/31 02:09:46;;;;;;;63.63;7.80;;;4.80;73.40;;;;;;5006592;28;20017;-60
2023/12/31 02:12:11;;;;;;;54.25;7.72;;;4.80;73.50;;;;;;5001742;28;20485;-58
2023/12/31 02:14:37;;;;;;;74.90;8.55;;;4.80;73.50;;;;;;5002039;28;20080;-58
2023/12/31 02:17:03;;;;;;;44.60;8.00;;;4.90;73.50;;;;;;5001816;28;20560;-59
2023/12/31 02:19:28;;;;;;;66.35;7.05;;;4.90;73.60;;;;;;5003248;28;20469;-59
2023/12/31 02:21:54;;;;;;;64.65;6.55;;;4.90;73.60;;;;;;4984501;28;20026;-59
2023/12/31 02:24:26;;;;;;;48.83;6.63;;;4.90;73.60;;;;;;5000594;28;20038;-60
2023/12/31 02:26:51;;;;;;;16.98;6.47;;;4.90;73.60;;;;;;5002833;28;20033;-61
2023/12/31 02:29:17;;;;;;;26.88;6.40;;;5.20;73.70;;;;;;5002788;28;20037;-59
2023/12/31 02:31:43;;;;;;;61.42;6.90;;;4.90;73.50;;;;;;5001151;28;20041;-59
2023/12/31 02:34:08;;;;;;;33.80;6.65;;;4.90;73.50;;;;;;5003187;28;20045;-60
2023/12/31 02:36:34;;;;;;;21.40;6.38;;;4.90;73.50;;;;;;5005815;28;20037;-59
2023/12/31 02:38:59;;;;;;;25.48;7.75;;;4.90;73.60;;;;;;5010876;28;20041;-58
2023/12/31 02:41:25;;;;;;;25.08;6.43;;;4.90;73.70;;;;;;5006298;28;20034;-58
2023/12/31 02:43:51;;;;;;;22.00;6.45;;;4.90;73.60;;;;;;5005517;28;20393;-59
2023/12/31 02:46:17;;;;;;;34.72;7.18;;;4.90;73.60;;;;;;4901889;28;20039;-59
2023/12/31 02:48:43;;;;;;;24.10;6.95;;;4.90;73.60;;;;;;5001773;28;20038;-59
2023/12/31 02:51:08;;;;;;;26.42;6.50;;;4.90;73.60;;;;;;5002534;28;20039;-59
2023/12/31 02:53:34;;;;;;;39.42;6.07;;;4.90;73.60;;;;;;5008161;28;20060;-58
2023/12/31 02:56:00;;;;;;;62.60;6.25;;;4.90;73.50;;;;;;5011908;28;20031;-60
2023/12/31 02:58:26;;;;;;;46.97;6.70;;;4.90;73.50;;;;;;5013366;28;20032;-59
2023/12/31 03:00:51;;;;;;;17.80;6.18;;;4.90;73.40;;;;;;5010266;28;20026;-60
2023/12/31 03:03:17;;;;;;;60.72;7.20;;;4.90;73.40;;;;;;5010786;28;20394;-59
2023/12/31 03:05:43;;;;;;;48.42;6.95;;;4.90;72.90;;;;;;5006803;28;20038;-60
2023/12/31 03:08:08;;;;;;;33.72;6.78;;;4.90;73.40;;;;;;5005459;28;20033;-60
2023/12/31 03:10:34;;;;;;;33.72;6.38;;;4.90;73.40;;;;;;5008672;28;20502;-59
2023/12/31 03:12:59;;;;;;;19.30;7.90;;;4.80;73.30;;;;;;4998924;28;20042;-60
2023/12/31 03:15:25;;;;;;;42.83;8.05;;;4.80;73.30;;;;;;4989206;28;20072;-59
2023/12/31 03:17:51;;;;;;;47.42;6.88;;;4.80;74.10;;;;;;4984835;28;20033;-59
2023/12/31 03:20:16;;;;;;;59.38;6.82;;;4.80;73.50;;;;;;5002639;28;20100;-60
2023/12/31 03:22:44;;;;;;;48.08;6.20;;;4.80;73.60;;;;;;5004632;28;20662;-60
2023/12/31 03:25:10;;;;;;;32.17;5.85;;;4.80;73.60;;;;;;4994855;28;20042;-60
2023/12/31 03:27:36;;;;;;;51.60;6.40;;;4.80;73.60;;;;;;5003642;28;20092;-59
2023/12/31 03:30:02;;;;;;;32.78;7.30;;;4.80;73.60;;;;;;5004400;28;20116;-60
2023/12/31 03:32:28;;;;;;;17.92;6.03;;;4.80;73.60;;;;;;5004973;28;20018;-59
2023/12/31 03:34:53;;;;;;;19.63;6.18;;;4.90;73.70;;;;;;5004932;28;20710;-60
2023/12/31 03:37:19;;;;;;;13.93;6.38;;;4.80;73.60;;;;;;5005985;28;20033;-60
2023/12/31 03:39:45;;;;;;;23.10;6.90;;;4.90;73.60;;;;;;5004916;28;20038;-59
2023/12/31 03:42:10;;;;;;;28.27;6.78;;;4.80;73.50;;;;;;5008322;28;20034;-58
2023/12/31 03:44:36;;;;;;;18.35;6.20;;;4.80;73.40;;;;;;5002166;28;20441;-59
2023/12/31 03:47:02;;;;;;;18.60;6.63;;;4.90;73.40;;;;;;4917762;28;20026;-58
2023/12/31 03:49:27;;;;;;;18.00;6.40;;;4.80;73.30;;;;;;5001716;28;20036;-60
2023/12/31 03:51:53;;;;;;;14.10;5.82;;;4.80;73.30;;;;;;5001356;28;20511;-60
2023/12/31 03:54:18;;;;;;;12.38;6.60;;;4.80;73.20;;;;;;5006718;28;20069;-59
2023/12/31 03:56:44;;;;;;;31.88;6.80;;;4.80;73.20;;;;;;5003848;28;20026;-59
2023/12/31 03:59:10;;;;;;;20.35;6.05;;;4.80;73.20;;;;;;5002811;28;20037;-59
2023/12/31 04:01:45;;;;;;;13.07;6.70;;;4.80;73.20;;;;;;5003964;28;20037;-59
2023/12/31 04:04:15;;;;;;;17.20;6.50;;;4.70;73.30;;;;;;5004280;28;20029;-60
2023/12/31 04:06:42;;;;;;;24.08;6.07;;;4.80;73.40;;;;;;5002807;28;20041;-59
2023/12/31 04:09:09;;;;;;;32.78;7.15;;;4.70;73.30;;;;;;5001661;28;20041;-59
2023/12/31 04:11:34;;;;;;;24.63;6.57;;;4.70;73.30;;;;;;5004608;28;20335;-59
2023/12/31 04:14:00;;;;;;;22.67;6.00;;;4.70;73.90;;;;;;5007051;28;20084;-59
2023/12/31 04:16:26;;;;;;;22.00;7.88;;;4.80;73.20;;;;;;5005475;28;20026;-59
2023/12/31 04:18:51;;;;;;;27.02;6.38;;;4.70;73.00;;;;;;5001224;28;20488;-59
2023/12/31 04:21:17;;;;;;;26.60;6.75;;;4.70;73.00;;;;;;5004339;28;20029;-59
2023/12/31 04:23:43;;;;;;;16.75;6.15;;;4.70;73.00;;;;;;5007438;28;20439;-59
2023/12/31 04:26:08;;;;;;;13.45;6.10;;;4.60;73.00;;;;;;4999319;28;20026;-58
2023/12/31 04:28:34;;;;;;;32.45;6.85;;;4.70;73.00;;;;;;5005258;28;20045;-59
2023/12/31 04:31:02;;;;;;;13.43;6.45;;;4.70;73.10;;;;;;5003103;28;20030;-59
2023/12/31 04:33:28;;;;;;;30.85;6.28;;;4.60;73.20;;;;;;5005845;28;20160;-58
2023/12/31 04:35:53;;;;;;;8.98;6.30;;;4.60;73.20;;;;;;5003842;28;20117;-58
2023/12/31 04:38:19;;;;;;;30.45;6.95;;;4.60;73.40;;;;;;5002868;28;20048;-59
2023/12/31 04:40:44;;;;;;;15.48;6.53;;;4.60;73.30;;;;;;5003329;28;20103;-59
2023/12/31 04:43:10;;;;;;;8.90;6.28;;;4.60;73.40;;;;;;5000487;28;20053;-59
2023/12/31 04:45:36;;;;;;;15.23;6.47;;;4.60;73.40;;;;;;4925155;28;20561;-59
2023/12/31 04:48:01;;;;;;;13.93;6.25;;;4.60;73.40;;;;;;5003306;28;20033;-59
2023/12/31 04:50:27;;;;;;;14.85;5.95;;;4.60;73.40;;;;;;5002784;28;20037;-60
2023/12/31 04:52:53;;;;;;;22.40;6.55;;;4.60;73.50;;;;;;5005518;28;20033;-59
2023/12/31 04:55:18;;;;;;;24.83;6.43;;;4.60;73.40;;;;;;5002261;28;20827;-59
2023/12/31 04:57:44;;;;;;;27.67;6.20;;;4.60;74.00;;;;;;5006838;28;20033;-59
2023/12/31 05:00:10;;;;;;;33.17;6.45;;;4.60;73.40;;;;;;5001126;28;20041;-59
2023/12/31 05:02:36;;;;;;;26.80;6.55;;;4.60;73.30;;;;;;5001750;28;20029;-59
2023/12/31 05:05:03;;;;;;;42.72;6.32;;;4.60;73.30;;;;;;5003069;28;20029;-60
2023/12/31 05:07:28;;;;;;;44.72;6.93;;;4.60;73.40;;;;;;5005458;28;20038;-60
2023/12/31 05:09:55;;;;;;;71.57;8.23;;;4.60;73.50;;;;;;4999333;28;20037;-59
2023/12/31 05:12:21;;;;;;;53.97;6.97;;;4.70;73.70;;;;;;5005877;28;20041;-59
2023/12/31 05:14:46;;;;;;;94.80;8.23;;;4.60;73.70;;;;;;5002482;28;20042;-59
2023/12/31 05:17:12;;;;;;;77.15;6.82;;;4.60;73.70;;;;;;5007134;28;20085;-59
2023/12/31 05:19:39;;;;;;;37.85;6.18;;;4.60;73.80;;;;;;5006953;28;20112;-59
2023/12/31 05:22:04;;;;;;;51.47;6.60;;;4.60;73.90;;;;;;5003228;28;20587;-59
2023/12/31 05:24:30;;;;;;;78.70;6.80;;;4.60;73.80;;;;;;5001348;28;20121;-58
2023/12/31 05:26:56;;;;;;;33.42;5.78;;;4.90;74.00;;;;;;4999727;28;20022;-60
2023/12/31 05:29:21;;;;;;;48.58;6.78;;;4.60;73.80;;;;;;5003725;28;20454;-60
2023/12/31 05:31:48;;;;;;;41.35;6.97;;;4.60;73.70;;;;;;5003606;28;20030;-60
2023/12/31 05:34:14;;;;;;;25.15;6.80;;;4.60;73.80;;;;;;5004469;28;20033;-59
2023/12/31 05:36:39;;;;;;;39.53;6.88;;;4.60;73.80;;;;;;5004181;28;20042;-59
2023/12/31 05:39:05;;;;;;;39.85;6.55;;;4.60;74.00;;;;;;5011204;28;20034;-59
2023/12/31 05:41:31;;;;;;;43.47;6.93;;;4.60;74.10;;;;;;4990510;28;20057;-60
2023/12/31 05:43:57;;;;;;;24.92;6.15;;;4.60;74.00;;;;;;4998201;28;20076;-59
2023/12/31 05:46:23;;;;;;;31.60;5.90;;;4.60;74.00;;;;;;4950522;28;20370;-59
2023/12/31 05:48:49;;;;;;;27.00;6.60;;;4.60;74.00;;;;;;5002733;28;20564;-59
2023/12/31 05:51:15;;;;;;;53.58;6.55;;;4.60;73.90;;;;;;4994262;28;20117;-59
2023/12/31 05:53:41;;;;;;;21.77;6.38;;;4.60;74.00;;;;;;5006474;28;20173;-60
2023/12/31 05:56:06;;;;;;;40.20;5.65;;;4.60;74.10;;;;;;5001608;28;20141;-59
2023/12/31 05:58:32;;;;;;;41.63;6.10;;;4.60;74.20;;;;;;5002380;28;20065;-59
2023/12/31 06:00:58;;;;;;;24.88;5.82;;;4.60;74.00;;;;;;4995570;28;20448;-60
2023/12/31 06:03:24;;;;;;;39.83;5.68;;;4.60;74.00;;;;;;5005559;28;20593;-60
2023/12/31 06:05:49;;;;;;;36.22;5.20;;;4.60;74.00;;;;;;5003102;28;20034;-59
2023/12/31 06:08:15;;;;;;;20.38;5.18;;;4.60;73.90;;;;;;4998924;28;20397;-59
2023/12/31 06:10:41;;;;;;;47.88;6.57;;;4.60;73.80;;;;;;4998316;28;20030;-59
2023/12/31 06:13:07;;;;;;;57.25;8.07;;;4.60;73.70;;;;;;5002484;28;20042;-59
2023/12/31 06:15:32;;;;;;;27.38;6.03;;;4.60;73.60;;;;;;5000875;28;20030;-59
2023/12/31 06:17:59;;;;;;;34.50;6.47;;;4.60;73.70;;;;;;5003182;28;20037;-58
2023/12/31 06:20:24;;;;;;;33.45;6.80;;;4.60;73.80;;;;;;5004617;28;20747;-59
2023/12/31 06:22:50;;;;;;;19.33;6.57;;;4.60;73.90;;;;;;5002992;28;20036;-60
2023/12/31 06:25:15;;;;;;;25.95;6.97;;;4.60;73.90;;;;;;5003548;28;20026;-59
2023/12/31 06:27:41;;;;;;;15.85;6.05;;;4.60;73.90;;;;;;5002417;28;20703;-59
2023/12/31 06:30:07;;;;;;;19.30;6.00;;;4.60;73.90;;;;;;5005511;28;20073;-61
2023/12/31 06:32:33;;;;;;;22.85;6.88;;;4.60;73.80;;;;;;5001730;28;20492;-60
2023/12/31 06:34:59;;;;;;;23.63;6.32;;;4.60;73.90;;;;;;5005729;28;20049;-59
2023/12/31 06:37:25;;;;;;;26.40;6.90;;;4.60;73.90;;;;;;5001898;28;20022;-59
2023/12/31 06:39:51;;;;;;;28.10;7.57;;;4.60;73.90;;;;;;4997821;28;20037;-60
2023/12/31 06:42:17;;;;;;;15.10;6.10;;;4.50;73.70;;;;;;5002632;28;20100;-59
2023/12/31 06:44:42;;;;;;;13.68;6.38;;;4.50;73.60;;;;;;5000651;28;20492;-59
2023/12/31 06:47:08;;;;;;;16.45;6.32;;;4.60;73.70;;;;;;4918158;28;20401;-59
2023/12/31 06:49:34;;;;;;;12.20;6.40;;;4.50;73.70;;;;;;5000327;28;20033;-58
2023/12/31 06:52:00;;;;;;;23.85;7.07;;;4.50;73.70;;;;;;5010280;28;20104;-59
2023/12/31 06:54:27;;;;;;;14.00;6.65;;;4.50;73.70;;;;;;5000719;28;20042;-59
2023/12/31 06:56:53;;;;;;;21.02;6.80;;;4.50;73.60;;;;;;5001199;28;20108;-59
2023/12/31 06:59:19;;;;;;;14.60;7.30;;;4.50;73.50;;;;;;4999226;28;20460;-58
2023/12/31 07:01:44;;;;;;;21.63;6.97;;;4.50;73.50;;;;;;5002869;28;20044;-60
2023/12/31 07:04:10;;;;;;;35.72;6.78;;;4.50;73.50;;;;;;5001814;28;20048;-59
2023/12/31 07:06:36;;;;;;;18.48;6.43;;;4.50;73.50;;;;;;5001806;28;20048;-58
2023/12/31 07:09:01;;;;;;;16.45;6.70;;;4.50;73.50;;;;;;5001916;28;20030;-60
2023/12/31 07:11:27;;;;;;;16.48;7.18;;;4.50;73.50;;;;;;5001220;28;20030;-59
2023/12/31 07:13:53;;;;;;;11.48;7.00;;;4.40;73.50;;;;;;4983261;28;20052;-58
2023/12/31 07:16:18;;;;;;;22.90;7.55;;;4.50;73.60;;;;;;5009394;28;20053;-62
2023/12/31 07:18:44;;;;;;;20.88;7.43;;;4.40;73.60;;;;;;4989678;28;20488;-60
2023/12/31 07:21:10;;;;;;;20.85;7.10;;;4.40;73.80;;;;;;5005493;28;20030;-60
2023/12/31 07:23:36;;;;;;;12.45;7.07;;;4.40;73.80;;;;;;5009243;28;20022;-61
2023/12/31 07:26:04;;;;;;;17.20;7.05;;;4.40;73.80;;;;;;4999848;28;21215;-61
2023/12/31 07:28:29;;;;;;;25.02;7.22;;;4.40;74.00;;;;;;5001753;28;20029;-61
2023/12/31 07:30:55;;;;;;;17.08;6.80;;;4.40;73.90;;;;;;5003892;28;20662;-60
2023/12/31 07:33:21;;;;;;;14.75;7.13;;;4.40;73.70;;;;;;5000263;28;20196;-60
2023/12/31 07:35:46;;;;;;;16.65;7.13;;;4.40;73.80;;;;;;5004961;28;20036;-60
2023/12/31 07:38:13;;;;;;;15.82;7.35;;;4.40;73.80;;;;;;5005290;28;20567;-62
2023/12/31 07:40:38;;;;;;;13.20;7.38;;;4.40;74.00;;;;;;5003979;28;20022;-61
2023/12/31 07:43:04;;;;;;;11.65;7.47;;;4.50;74.10;;;;;;5004722;28;20045;-59
2023/12/31 07:45:31;;;;;;;15.20;7.55;;;4.40;74.00;;;;;;4999758;28;20116;-61
2023/12/31 07:47:57;;;;;;;17.75;7.10;;;4.50;74.10;;;;;;4915606;28;20030;-61
2023/12/31 07:50:23;;;;;;;23.75;7.03;;;4.50;74.20;;;;;;4986126;28;20396;-61
2023/12/31 07:52:49;;;;;;;15.07;7.20;;;4.50;74.30;;;;;;5001628;28;20038;-61
2023/12/31 07:55:15;;;;;;;16.08;7.28;;;4.50;74.10;;;;;;5005932;28;20629;-61
2023/12/31 07:57:41;;;;;;;13.55;6.78;;;4.50;74.00;;;;;;5001358;28;20037;-61
2023/12/31 08:00:08;;;;;;;37.28;7.07;;;4.50;73.80;;;;;;5000601;28;20069;-61
2023/12/31 08:02:34;;;;;;;12.45;7.15;;;4.50;73.70;;;;;;5005235;28;20061;-60
2023/12/31 08:04:59;;;;;;;15.75;7.22;;;4.60;73.70;;;;;;4999971;28;20035;-60
2023/12/31 08:07:25;;;;;;;21.48;7.25;;;4.50;73.70;;;;;;5003674;28;20620;-61
2023/12/31 08:09:52;;;;;;;19.48;8.02;;;4.70;73.60;;;;;;5004723;28;20038;-61
2023/12/31 08:12:18;;;;;;;11.38;7.55;;;4.50;73.30;;;;;;5004300;28;20025;-61
2023/12/31 08:14:43;;;;;;;12.38;7.80;;;4.50;73.40;;;;;;5003160;28;20034;-61
2023/12/31 08:17:09;;;;;;;16.10;9.13;;;4.50;73.70;;;;;;4986357;28;20444;-61
2023/12/31 08:19:36;;;;;;;14.85;9.82;;;4.50;74.40;;;;;;4999835;28;20500;-60
2023/12/31 08:22:02;;;;;;;17.20;10.68;;;4.50;73.90;;;;;;5003240;28;20025;-59
2023/12/31 08:24:28;;;;;;;17.67;8.52;;;4.50;74.00;;;;;;5004228;28;20088;-61
2023/12/31 08:26:54;;;;;;;15.65;8.93;;;4.50;74.00;;;;;;4983717;28;20026;-61
2023/12/31 08:29:19;;;;;;;19.52;9.85;;;4.50;74.00;;;;;;5002340;28;20049;-60
2023/12/31 08:31:49;;;;;;;18.77;9.00;;;4.50;74.10;;;;;;5003292;28;20029;-61
2023/12/31 08:34:15;;;;;;;20.60;8.88;;;4.60;74.30;;;;;;4999826;28;20084;-60
2023/12/31 08:36:40;;;;;;;18.88;9.40;;;4.60;74.20;;;;;;5006677;28;20041;-61
2023/12/31 08:39:06;;;;;;;17.17;9.05;;;4.70;74.10;;;;;;4999636;28;20657;-61
2023/12/31 08:41:32;;;;;;;14.38;8.85;;;4.70;74.20;;;;;;5004742;28;20786;-62
2023/12/31 08:43:58;;;;;;;17.00;10.35;;;5.00;74.60;;;;;;5011138;28;20029;-61
2023/12/31 08:46:24;;;;;;;16.85;9.15;;;4.70;74.30;;;;;;5005462;28;20121;-60
2023/12/31 08:48:50;;;;;;;14.65;9.50;;;4.80;74.20;;;;;;5008326;28;20040;-60
2023/12/31 08:51:15;;;;;;;19.00;9.52;;;4.80;74.20;;;;;;5004335;28;20033;-60
2023/12/31 08:53:42;;;;;;;17.30;10.18;;;4.80;74.20;;;;;;5002665;28;20052;-60
2023/12/31 08:56:08;;;;;;;17.67;10.57;;;4.90;74.10;;;;;;4983088;28;20042;-60
2023/12/31 08:58:33;;;;;;;17.08;10.05;;;4.90;74.10;;;;;;5001482;28;20028;-60
2023/12/31 09:00:59;;;;;;;17.98;10.32;;;4.90;74.10;;;;;;5002962;28;20133;-61
2023/12/31 09:03:25;;;;;;;14.27;9.48;;;4.90;74.10;;;;;;5006500;28;20038;-60
2023/12/31 09:05:51;;;;;;;14.93;8.68;;;5.00;74.20;;;;;;4999010;28;20026;-60
2023/12/31 09:08:17;;;;;;;11.60;7.82;;;5.00;74.20;;;;;;5003807;28;20037;-60
2023/12/31 09:10:43;;;;;;;10.35;7.32;;;5.00;74.10;;;;;;4996798;28;20537;-61
2023/12/31 09:13:09;;;;;;;10.20;7.63;;;5.10;74.10;;;;;;5003706;28;20053;-61
2023/12/31 09:15:36;;;;;;;15.05;9.55;;;5.10;73.90;;;;;;5006867;28;20113;-61
2023/12/31 09:18:02;;;;;;;13.55;9.57;;;5.10;73.90;;;;;;5003198;28;20481;-61
2023/12/31 09:20:28;;;;;;;11.77;8.35;;;5.20;73.80;;;;;;5001268;28;20033;-61
2023/12/31 09:22:54;;;;;;;11.07;8.00;;;5.20;73.90;;;;;;5004668;28;20079;-59
2023/12/31 09:25:20;;;;;;;12.23;8.73;;;5.20;73.80;;;;;;5005233;28;20040;-60
2023/12/31 09:27:46;;;;;;;9.77;7.20;;;5.30;73.90;;;;;;5004558;28;20060;-60
2023/12/31 09:30:12;;;;;;;14.35;9.85;;;5.30;73.70;;;;;;4985902;28;20558;-60
2023/12/31 09:32:37;;;;;;;13.30;9.25;;;5.30;72.90;;;;;;5004935;28;20041;-60
2023/12/31 09:35:04;;;;;;;12.50;9.07;;;5.30;73.00;;;;;;5003790;28;20037;-60
2023/12/31 09:37:30;;;;;;;10.23;7.80;;;5.30;73.20;;;;;;5000090;28;20025;-61
2023/12/31 09:39:56;;;;;;;11.00;8.50;;;5.30;73.30;;;;;;5003151;28;20096;-61
2023/12/31 09:42:34;;;;;;;10.85;7.88;;;5.20;73.10;;;;;;4999269;28;20132;-61
2023/12/31 09:45:03;;;;;;;13.38;8.50;;;5.20;73.60;;;;;;4985436;28;20049;-63
2023/12/31 09:47:31;;;;;;;10.90;7.93;;;5.20;73.50;;;;;;5003952;28;20155;-61
2023/12/31 09:49:58;;;;;;;11.52;8.43;;;5.30;73.70;;;;;;5003942;28;20022;-62
2023/12/31 09:52:26;;;;;;;12.00;9.18;;;5.30;73.80;;;;;;4985716;28;20073;-61
2023/12/31 09:54:54;;;;;;;9.88;7.28;;;5.30;73.60;;;;;;5000639;28;20046;-61
2023/12/31 09:57:20;;;;;;;12.02;8.38;;;5.30;73.80;;;;;;4998578;28;20109;-62
2023/12/31 09:59:50;;;;;;;12.40;7.82;;;5.30;73.60;;;;;;5002531;28;20422;-62
2023/12/31 10:02:22;;;;;;;10.40;7.50;;;5.30;73.40;;;;;;5001465;28;20080;-61
2023/12/31 10:04:49;;;;;;;10.52;7.78;;;5.30;73.60;;;;;;4998297;28;20134;-62
2023/12/31 10:07:16;;;;;;;10.00;7.18;;;5.30;73.50;;;;;;5003680;28;20113;-62
2023/12/31 10:09:42;;;;;;;9.50;7.30;;;5.30;73.90;;;;;;5003142;28;20022;-63
2023/12/31 10:12:08;;;;;;;11.02;7.68;;;5.30;74.00;;;;;;4987515;28;20488;-62
2023/12/31 10:14:34;;;;;;;13.48;8.30;;;5.40;74.00;;;;;;5008932;28;20037;-62
2023/12/31 10:16:59;;;;;;;11.48;8.13;;;5.40;74.20;;;;;;5000262;28;20080;-62
2023/12/31 10:19:25;;;;;;;11.48;8.40;;;5.40;74.40;;;;;;5002930;28;20036;-62
2023/12/31 10:21:51;;;;;;;11.98;8.38;;;5.50;74.50;;;;;;5003189;28;20436;-62
2023/12/31 10:24:27;;;;;;;10.55;7.80;;;5.50;75.20;;;;;;5003155;28;20047;-61
2023/12/31 10:27:00;;;;;;;11.07;7.82;;;5.60;74.70;;;;;;5002014;28;20042;-62
2023/12/31 10:29:26;;;;;;;8.80;6.68;;;5.70;74.50;;;;;;5005126;28;20573;-62
2023/12/31 10:31:55;;;;;;;9.48;7.20;;;5.70;74.30;;;;;;5002407;28;20088;-60
2023/12/31 10:34:21;;;;;;;8.93;6.63;;;5.80;74.30;;;;;;5003433;28;20038;-61
2023/12/31 10:36:48;;;;;;;9.57;7.35;;;5.90;74.20;;;;;;4984388;28;20034;-61
2023/12/31 10:39:30;;;;;;;10.73;7.65;;;5.90;74.20;;;;;;5001793;28;20025;-60
2023/12/31 10:42:03;;;;;;;11.35;7.22;;;6.00;74.50;;;;;;4993881;28;20119;-60
2023/12/31 10:44:33;;;;;;;11.18;7.45;;;6.00;74.30;;;;;;5004637;28;20080;-60
2023/12/31 10:47:04;;;;;;;10.52;7.95;;;6.10;74.10;;;;;;4918096;28;20053;-60
2023/12/31 10:49:32;;;;;;;11.55;6.75;;;6.20;74.00;;;;;;5002500;28;20030;-63
2023/12/31 10:52:03;;;;;;;11.25;7.05;;;6.20;73.80;;;;;;5007116;28;20057;-61
2023/12/31 10:54:36;;;;;;;11.07;8.27;;;6.30;73.70;;;;;;5000357;28;20061;-62
2023/12/31 10:57:05;;;;;;;12.02;7.40;;;6.40;73.70;;;;;;5005751;28;20375;-62
2023/12/31 10:59:31;;;;;;;12.00;8.38;;;6.40;73.60;;;;;;5002374;28;20036;-62
2023/12/31 11:01:57;;;;;;;13.30;9.20;;;6.50;73.60;;;;;;4989475;28;20026;-61
2023/12/31 11:04:26;;;;;;;12.45;8.43;;;6.50;73.50;;;;;;5008236;28;20802;-61
2023/12/31 11:06:54;;;;;;;12.18;8.25;;;6.60;73.60;;;;;;5007274;28;20475;-62
2023/12/31 11:09:21;;;;;;;9.88;7.80;;;6.60;73.40;;;;;;4998447;28;20080;-62
2023/12/31 11:11:49;;;;;;;10.20;7.65;;;6.70;73.20;;;;;;4999725;28;20151;-61
2023/12/31 11:14:16;;;;;;;11.02;8.02;;;6.70;73.10;;;;;;5004580;28;20049;-60
2023/12/31 11:16:54;;;;;;;9.07;6.82;;;6.70;73.10;;;;;;5002024;28;20350;-61
2023/12/31 11:19:58;;;;;;;10.93;7.68;;;6.80;73.10;;;;;;5006309;28;20031;-62
2023/12/31 11:23:01;;;;;;;13.48;7.20;;;6.80;73.20;;;;;;4991954;28;20069;-61
2023/12/31 11:25:27;;;;;;;12.35;7.55;;;6.90;73.20;;;;;;5006263;28;20029;-61
2023/12/31 11:27:54;;;;;;;13.48;8.95;;;7.00;73.30;;;;;;5006491;28;20034;-61
2023/12/31 11:30:47;;;;;;;11.13;7.75;;;7.00;73.30;;;;;;5008710;28;20153;-61
2023/12/31 11:33:20;;;;;;;12.10;7.57;;;7.10;73.10;;;;;;5000162;28;20045;-61
2023/12/31 11:35:51;;;;;;;10.15;7.43;;;7.20;72.80;;;;;;5008224;28;20551;-60
2023/12/31 11:38:18;;;;;;;9.95;6.65;;;7.20;72.70;;;;;;5005406;28;20045;-61
2023/12/31 11:40:44;;;;;;;10.90;7.57;;;7.30;72.70;;;;;;5005684;28;20068;-62
2023/12/31 11:43:17;;;;;;;12.63;7.68;;;7.40;72.70;;;;;;5008888;28;20049;-60
2023/12/31 11:45:50;;;;;;;11.60;7.82;;;7.40;72.50;;;;;;4932340;28;20032;-61
2023/12/31 11:48:26;;;;;;;12.00;6.95;;;7.50;72.50;;;;;;5006004;28;20025;-61
2023/12/31 11:50:53;;;;;;;9.52;7.47;;;7.50;72.50;;;;;;5009603;28;20109;-61
2023/12/31 11:53:22;;;;;;;9.40;7.13;;;7.60;72.60;;;;;;5003376;28;20042;-61
2023/12/31 11:55:56;;;;;;;11.82;7.70;;;7.70;72.60;;;;;;5000818;28;20062;-60
2023/12/31 11:58:22;;;;;;;;;;;7.80;72.60;;;;;;5005459;28;20639;-64
2023/12/31 12:00:50;;;;;;;11.57;7.18;;;7.90;72.40;;;;;;5004619;28;20306;-62
2023/12/31 12:03:17;;;;;;;12.18;7.60;;;7.90;72.20;;;;;;5001595;28;20172;-62
2023/12/31 12:05:45;;;;;;;14.32;7.93;;;8.00;72.10;;;;;;5006087;28;20022;-61
2023/12/31 12:08:11;;;;;;;10.80;7.50;;;8.10;71.90;;;;;;5003167;28;20087;-61
2023/12/31 12:10:37;;;;;;;10.57;7.88;;;8.20;71.70;;;;;;5008798;28;20026;-61
2023/12/31 12:13:03;;;;;;;11.65;7.88;;;8.20;71.50;;;;;;5009711;28;20026;-60
2023/12/31 12:15:36;;;;;;;26.42;15.35;;;8.20;71.40;;;;;;5001166;28;20038;-61
2023/12/31 12:18:21;;;;;;;51.90;26.25;;;8.30;71.20;;;;;;4981193;28;20045;-60
2023/12/31 12:20:47;;;;;;;24.90;14.80;;;8.30;71.10;;;;;;5003318;28;20025;-60
2023/12/31 12:23:24;;;;;;;17.25;11.27;;;8.40;71.10;;;;;;4999169;28;20044;-60
2023/12/31 12:25:50;;;;;;;14.98;10.55;;;8.40;70.70;;;;;;5004440;28;20029;-60
2023/12/31 12:28:16;;;;;;;15.20;9.25;;;8.40;70.70;;;;;;5004284;28;20045;-61
2023/12/31 12:30:42;;;;;;;13.55;8.68;;;8.40;70.50;;;;;;5007009;28;20590;-60
2023/12/31 12:33:09;;;;;;;13.80;10.18;;;8.40;70.40;;;;;;5005412;28;20049;-60
2023/12/31 12:35:39;;;;;;;17.88;10.45;;;8.40;71.10;;;;;;5005328;28;20036;-60
2023/12/31 12:38:05;;;;;;;16.00;9.95;;;8.30;70.50;;;;;;5006488;28;20059;-61
2023/12/31 12:40:32;;;;;;;15.43;9.68;;;8.30;70.60;;;;;;5002892;28;20037;-62
2023/12/31 12:43:01;;;;;;;13.70;8.70;;;8.30;70.40;;;;;;5000203;28;20030;-59
2023/12/31 12:45:28;;;;;;;15.45;9.40;;;8.30;70.50;;;;;;5004950;28;20138;-61